sensor_id;sensor_type;location;lat;lon;timestamp;pressure;altitude;pressure_sealevel;temperature;humidity
27429;BME280;14881;48.092;11.574;2022-08-19T00:01:52;95027.25;;;17.31;100.00
27429;BME280;14881;48.092;11.574;2022-08-19T00:04:21;95035.38;;;17.27;100.00
27429;BME280;14881;48.092;11.574;2022-08-19T00:06:51;95024.38;;;17.27;100.00
27429;BME280;14881;48.092;11.574;2022-08-19T00:09:22;95015.09;;;17.32;100.00
27429;BME280;14881;48.092;11.574;2022-08-19T00:11:50;95006.84;;;17.32;100.00
27429;BME280;14881;48.092;11.574;2022-08-19T00:14:19;95004.81;;;17.29;100.00
27429;BME280;14881;48.092;11.574;2022-08-19T00:16:48;94986.41;;;17.29;100.00
27429;BME280;14881;48.092;11.574;2022-08-19T00:19:17;94987.28;;;17.33;100.00
27429;BME280;14881;48.092;11.574;2022-08-19T00:21:45;94987.88;;;17.27;100.00
27429;BME280;14881;48.092;11.574;2022-08-19T00:24:14;94983.19;;;17.27;100.00
27429;BME280;14881;48.092;11.574;2022-08-19T00:26:44;94977.91;;;17.34;100.00
27429;BME280;14881;48.092;11.574;2022-08-19T00:29:14;94974.38;;;17.34;100.00
27429;BME280;14881;48.092;11.574;2022-08-19T00:31:43;94967.38;;;17.36;100.00
27429;BME280;14881;48.092;11.574;2022-08-19T00:34:11;94971.63;;;17.34;100.00
27429;BME280;14881;48.092;11.574;2022-08-19T00:36:40;94976.41;;;17.37;100.00
27429;BME280;14881;48.092;11.574;2022-08-19T00:39:09;94982.03;;;17.40;100.00
27429;BME280;14881;48.092;11.574;2022-08-19T00:41:37;94976.53;;;17.40;100.00
27429;BME280;14881;48.092;11.574;2022-08-19T00:44:07;94975.03;;;17.43;100.00
27429;BME280;14881;48.092;11.574;2022-08-19T00:46:37;94965.78;;;17.35;100.00
27429;BME280;14881;48.092;11.574;2022-08-19T00:49:11;94959.94;;;17.37;100.00
27429;BME280;14881;48.092;11.574;2022-08-19T00:51:43;94948.75;;;17.30;100.00
27429;BME280;14881;48.092;11.574;2022-08-19T00:54:12;94930.91;;;17.24;100.00
27429;BME280;14881;48.092;11.574;2022-08-19T00:56:41;94932.28;;;17.18;100.00
27429;BME280;14881;48.092;11.574;2022-08-19T00:59:10;94936.41;;;17.24;100.00
27429;BME280;14881;48.092;11.574;2022-08-19T01:01:39;94950.81;;;17.21;100.00
27429;BME280;14881;48.092;11.574;2022-08-19T01:04:08;94950.94;;;17.24;100.00
27429;BME280;14881;48.092;11.574;2022-08-19T01:06:37;94950.25;;;17.27;100.00
27429;BME280;14881;48.092;11.574;2022-08-19T01:09:05;94949.44;;;17.27;100.00
27429;BME280;14881;48.092;11.574;2022-08-19T01:11:39;94937.53;;;17.23;100.00
27429;BME280;14881;48.092;11.574;2022-08-19T01:14:10;94935.25;;;17.25;100.00
27429;BME280;14881;48.092;11.574;2022-08-19T01:16:39;94937.84;;;17.33;100.00
27429;BME280;14881;48.092;11.574;2022-08-19T01:19:12;94933.16;;;17.34;100.00
27429;BME280;14881;48.092;11.574;2022-08-19T01:21:48;94938.44;;;17.39;100.00
27429;BME280;14881;48.092;11.574;2022-08-19T01:24:19;94949.75;;;17.37;100.00
27429;BME280;14881;48.092;11.574;2022-08-19T01:26:50;94956.06;;;17.38;100.00
27429;BME280;14881;48.092;11.574;2022-08-19T01:29:18;94965.91;;;17.39;100.00
27429;BME280;14881;48.092;11.574;2022-08-19T01:31:46;94975.03;;;17.43;100.00
27429;BME280;14881;48.092;11.574;2022-08-19T01:34:19;94983.19;;;17.39;100.00
27429;BME280;14881;48.092;11.574;2022-08-19T01:36:48;94993.69;;;17.37;100.00
27429;BME280;14881;48.092;11.574;2022-08-19T01:39:19;94982.13;;;17.32;100.00
27429;BME280;14881;48.092;11.574;2022-08-19T01:41:48;94979.41;;;17.32;100.00
27429;BME280;14881;48.092;11.574;2022-08-19T01:44:16;94975.97;;;17.35;100.00
27429;BME280;14881;48.092;11.574;2022-08-19T01:46:47;94978.63;;;17.31;100.00
27429;BME280;14881;48.092;11.574;2022-08-19T01:49:19;94987.19;;;17.30;100.00
27429;BME280;14881;48.092;11.574;2022-08-19T01:51:48;94997.84;;;17.31;100.00
27429;BME280;14881;48.092;11.574;2022-08-19T01:54:19;94994.72;;;17.33;100.00
27429;BME280;14881;48.092;11.574;2022-08-19T01:56:56;94999.41;;;17.32;100.00
27429;BME280;14881;48.092;11.574;2022-08-19T01:59:25;94986.94;;;17.35;100.00
27429;BME280;14881;48.092;11.574;2022-08-19T02:01:53;94981.91;;;17.37;100.00
27429;BME280;14881;48.092;11.574;2022-08-19T02:04:21;94981.22;;;17.40;100.00
27429;BME280;14881;48.092;11.574;2022-08-19T02:06:49;94986.72;;;17.40;100.00
27429;BME280;14881;48.092;11.574;2022-08-19T02:09:18;94985.91;;;17.39;100.00
27429;BME280;14881;48.092;11.574;2022-08-19T02:11:46;94994.16;;;17.39;100.00
27429;BME280;14881;48.092;11.574;2022-08-19T02:14:14;95000.34;;;17.36;100.00
27429;BME280;14881;48.092;11.574;2022-08-19T02:16:42;94996.09;;;17.39;100.00
27429;BME280;14881;48.092;11.574;2022-08-19T02:19:10;95007.09;;;17.39;100.00
27429;BME280;14881;48.092;11.574;2022-08-19T02:21:37;94996.09;;;17.39;100.00
27429;BME280;14881;48.092;11.574;2022-08-19T02:24:05;94998.38;;;17.37;100.00
27429;BME280;14881;48.092;11.574;2022-08-19T02:26:35;95005.94;;;17.40;100.00
27429;BME280;14881;48.092;11.574;2022-08-19T02:29:03;95013.38;;;17.39;100.00
27429;BME280;14881;48.092;11.574;2022-08-19T02:31:31;95000.13;;;17.42;100.00
27429;BME280;14881;48.092;11.574;2022-08-19T02:33:59;94999.78;;;17.43;100.00
27429;BME280;14881;48.092;11.574;2022-08-19T02:36:27;94989.13;;;17.42;100.00
27429;BME280;14881;48.092;11.574;2022-08-19T02:38:56;94976.06;;;17.38;100.00
27429;BME280;14881;48.092;11.574;2022-08-19T02:41:25;94968.53;;;17.35;100.00
27429;BME280;14881;48.092;11.574;2022-08-19T02:43:55;94945.56;;;17.28;100.00
27429;BME280;14881;48.092;11.574;2022-08-19T02:46:45;94929.06;;;17.16;100.00
27429;BME280;14881;48.092;11.574;2022-08-19T02:49:13;94936.44;;;17.12;100.00
27429;BME280;14881;48.092;11.574;2022-08-19T02:51:44;94951.28;;;17.11;100.00
27429;BME280;14881;48.092;11.574;2022-08-19T02:54:13;94937.31;;;17.16;100.00
27429;BME280;14881;48.092;11.574;2022-08-19T02:56:42;94923.16;;;17.14;100.00
27429;BME280;14881;48.092;11.574;2022-08-19T02:59:12;94933.75;;;17.15;100.00
27429;BME280;14881;48.092;11.574;2022-08-19T03:01:41;94928.53;;;17.10;100.00
27429;BME280;14881;48.092;11.574;2022-08-19T03:04:11;94934.38;;;17.09;100.00
27429;BME280;14881;48.092;11.574;2022-08-19T03:06:41;94932.09;;;17.11;100.00
27429;BME280;14881;48.092;11.574;2022-08-19T03:09:10;94941.34;;;17.06;100.00
27429;BME280;14881;48.092;11.574;2022-08-19T03:11:38;94955.75;;;17.03;100.00
27429;BME280;14881;48.092;11.574;2022-08-19T03:14:08;94950.84;;;16.96;100.00
27429;BME280;14881;48.092;11.574;2022-08-19T03:16:42;94945.69;;;16.95;100.00
27429;BME280;14881;48.092;11.574;2022-08-19T03:19:11;94949.59;;;16.94;100.00
27429;BME280;14881;48.092;11.574;2022-08-19T03:21:39;94961.91;;;17.00;100.00
27429;BME280;14881;48.092;11.574;2022-08-19T03:24:08;94976.00;;;17.11;100.00
27429;BME280;14881;48.092;11.574;2022-08-19T03:26:38;94970.63;;;17.14;100.00
27429;BME280;14881;48.092;11.574;2022-08-19T03:29:08;94968.44;;;17.20;100.00
27429;BME280;14881;48.092;11.574;2022-08-19T03:31:42;94967.50;;;17.16;100.00
27429;BME280;14881;48.092;11.574;2022-08-19T03:34:21;94967.78;;;17.11;100.00
27429;BME280;14881;48.092;11.574;2022-08-19T03:36:49;94960.56;;;17.06;100.00
27429;BME280;14881;48.092;11.574;2022-08-19T03:39:17;94958.38;;;16.99;100.00
27429;BME280;14881;48.092;11.574;2022-08-19T03:41:47;94967.31;;;16.96;100.00
27429;BME280;14881;48.092;11.574;2022-08-19T03:44:36;94955.53;;;16.96;100.00
27429;BME280;14881;48.092;11.574;2022-08-19T03:47:06;94963.53;;;17.01;100.00
27429;BME280;14881;48.092;11.574;2022-08-19T03:49:34;94963.31;;;17.06;100.00
27429;BME280;14881;48.092;11.574;2022-08-19T03:52:03;94971.88;;;17.17;100.00
27429;BME280;14881;48.092;11.574;2022-08-19T03:54:34;94967.44;;;17.12;100.00
27429;BME280;14881;48.092;11.574;2022-08-19T03:57:02;94965.69;;;17.20;100.00
27429;BME280;14881;48.092;11.574;2022-08-19T03:59:33;94963.75;;;17.20;100.00
27429;BME280;14881;48.092;11.574;2022-08-19T04:02:05;94957.78;;;17.18;100.00
27429;BME280;14881;48.092;11.574;2022-08-19T04:04:37;94956.44;;;17.24;100.00
27429;BME280;14881;48.092;11.574;2022-08-19T04:07:05;94960.53;;;17.30;100.00
27429;BME280;14881;48.092;11.574;2022-08-19T04:09:35;94956.88;;;17.26;100.00
27429;BME280;14881;48.092;11.574;2022-08-19T04:12:04;94948.97;;;17.25;100.00
27429;BME280;14881;48.092;11.574;2022-08-19T04:14:33;94961.22;;;17.27;100.00
27429;BME280;14881;48.092;11.574;2022-08-19T04:17:02;94959.03;;;17.33;100.00
27429;BME280;14881;48.092;11.574;2022-08-19T04:19:31;94967.19;;;17.29;100.00
27429;BME280;14881;48.092;11.574;2022-08-19T04:22:01;94967.97;;;17.30;100.00
27429;BME280;14881;48.092;11.574;2022-08-19T04:24:29;94958.94;;;17.29;100.00
27429;BME280;14881;48.092;11.574;2022-08-19T04:26:59;94957.34;;;17.28;100.00
27429;BME280;14881;48.092;11.574;2022-08-19T04:29:27;94958.69;;;17.34;100.00
27429;BME280;14881;48.092;11.574;2022-08-19T04:31:56;94963.16;;;17.27;100.00
27429;BME280;14881;48.092;11.574;2022-08-19T04:34:27;94981.25;;;17.28;100.00
27429;BME280;14881;48.092;11.574;2022-08-19T04:36:57;94993.72;;;17.25;100.00
27429;BME280;14881;48.092;11.574;2022-08-19T04:39:29;94994.53;;;17.26;100.00
27429;BME280;14881;48.092;11.574;2022-08-19T04:42:12;94995.53;;;17.33;100.00
27429;BME280;14881;48.092;11.574;2022-08-19T04:44:57;95002.97;;;17.33;100.00
27429;BME280;14881;48.092;11.574;2022-08-19T04:47:26;95004.09;;;17.32;100.00
27429;BME280;14881;48.092;11.574;2022-08-19T04:50:14;95007.66;;;17.32;100.00
27429;BME280;14881;48.092;11.574;2022-08-19T04:52:42;95012.94;;;17.37;100.00
27429;BME280;14881;48.092;11.574;2022-08-19T04:55:12;95009.59;;;17.32;100.00
27429;BME280;14881;48.092;11.574;2022-08-19T04:57:40;95012.72;;;17.30;100.00
27429;BME280;14881;48.092;11.574;2022-08-19T05:00:09;95020.38;;;17.37;100.00
27429;BME280;14881;48.092;11.574;2022-08-19T05:02:37;95019.91;;;17.35;100.00
27429;BME280;14881;48.092;11.574;2022-08-19T05:05:06;95019.69;;;17.40;100.00
27429;BME280;14881;48.092;11.574;2022-08-19T05:07:34;95022.53;;;17.44;100.00
27429;BME280;14881;48.092;11.574;2022-08-19T05:10:03;95024.38;;;17.39;100.00
27429;BME280;14881;48.092;11.574;2022-08-19T05:12:33;95027.13;;;17.39;100.00
27429;BME280;14881;48.092;11.574;2022-08-19T05:15:05;95029.97;;;17.43;100.00
27429;BME280;14881;48.092;11.574;2022-08-19T05:17:35;95024.81;;;17.42;100.00
27429;BME280;14881;48.092;11.574;2022-08-19T05:20:05;95017.16;;;17.47;100.00
27429;BME280;14881;48.092;11.574;2022-08-19T05:22:51;95025.50;;;17.51;100.00
27429;BME280;14881;48.092;11.574;2022-08-19T05:25:20;95027.44;;;17.50;100.00
27429;BME280;14881;48.092;11.574;2022-08-19T05:27:50;95015.31;;;17.51;100.00
27429;BME280;14881;48.092;11.574;2022-08-19T05:30:18;95004.09;;;17.56;100.00
27429;BME280;14881;48.092;11.574;2022-08-19T05:33:06;95005.00;;;17.60;100.00
27429;BME280;14881;48.092;11.574;2022-08-19T05:35:36;94997.00;;;17.55;100.00
27429;BME280;14881;48.092;11.574;2022-08-19T05:38:04;94998.94;;;17.55;100.00
27429;BME280;14881;48.092;11.574;2022-08-19T05:40:34;94997.91;;;17.59;100.00
27429;BME280;14881;48.092;11.574;2022-08-19T05:43:06;94994.47;;;17.62;100.00
27429;BME280;14881;48.092;11.574;2022-08-19T05:45:38;94998.38;;;17.61;100.00
27429;BME280;14881;48.092;11.574;2022-08-19T05:48:06;94989.13;;;17.66;100.00
27429;BME280;14881;48.092;11.574;2022-08-19T05:50:35;94999.84;;;17.71;100.00
27429;BME280;14881;48.092;11.574;2022-08-19T05:53:03;94995.38;;;17.66;100.00
27429;BME280;14881;48.092;11.574;2022-08-19T05:55:31;94987.47;;;17.77;100.00
27429;BME280;14881;48.092;11.574;2022-08-19T05:57:59;94997.88;;;17.84;100.00
27429;BME280;14881;48.092;11.574;2022-08-19T06:00:29;95005.22;;;17.80;100.00
27429;BME280;14881;48.092;11.574;2022-08-19T06:02:57;95011.19;;;17.82;100.00
27429;BME280;14881;48.092;11.574;2022-08-19T06:05:39;95004.72;;;17.90;100.00
27429;BME280;14881;48.092;11.574;2022-08-19T06:08:17;94991.44;;;17.92;100.00
27429;BME280;14881;48.092;11.574;2022-08-19T06:10:45;94991.09;;;17.93;100.00
27429;BME280;14881;48.092;11.574;2022-08-19T06:13:13;95000.81;;;17.91;100.00
27429;BME280;14881;48.092;11.574;2022-08-19T06:15:42;95015.25;;;17.88;100.00
27429;BME280;14881;48.092;11.574;2022-08-19T06:18:13;95011.47;;;17.92;100.00
27429;BME280;14881;48.092;11.574;2022-08-19T06:20:42;95013.31;;;17.88;100.00
27429;BME280;14881;48.092;11.574;2022-08-19T06:23:23;95021.09;;;17.86;100.00
27429;BME280;14881;48.092;11.574;2022-08-19T06:25:50;95020.47;;;17.77;100.00
27429;BME280;14881;48.092;11.574;2022-08-19T06:28:18;95018.16;;;17.79;100.00
27429;BME280;14881;48.092;11.574;2022-08-19T06:30:49;95015.53;;;17.83;100.00
27429;BME280;14881;48.092;11.574;2022-08-19T06:33:17;95006.56;;;17.86;100.00
27429;BME280;14881;48.092;11.574;2022-08-19T06:35:45;95014.50;;;17.75;100.00
27429;BME280;14881;48.092;11.574;2022-08-19T06:38:13;95009.22;;;17.82;100.00
27429;BME280;14881;48.092;11.574;2022-08-19T06:40:41;95010.38;;;17.81;100.00
27429;BME280;14881;48.092;11.574;2022-08-19T06:43:09;95015.06;;;17.81;100.00
27429;BME280;14881;48.092;11.574;2022-08-19T06:45:39;95006.09;;;17.84;100.00
27429;BME280;14881;48.092;11.574;2022-08-19T06:48:08;95019.41;;;17.82;100.00
27429;BME280;14881;48.092;11.574;2022-08-19T06:50:37;95015.53;;;17.83;100.00
27429;BME280;14881;48.092;11.574;2022-08-19T06:53:06;95011.97;;;17.82;100.00
27429;BME280;14881;48.092;11.574;2022-08-19T06:55:34;95017.47;;;17.82;100.00
27429;BME280;14881;48.092;11.574;2022-08-19T06:58:02;95004.44;;;17.79;100.00
27429;BME280;14881;48.092;11.574;2022-08-19T07:00:30;95001.28;;;17.93;100.00
27429;BME280;14881;48.092;11.574;2022-08-19T07:02:58;95001.69;;;18.07;100.00
27429;BME280;14881;48.092;11.574;2022-08-19T07:05:39;94999.03;;;18.11;100.00
27429;BME280;14881;48.092;11.574;2022-08-19T07:08:12;94998.34;;;18.14;100.00
27429;BME280;14881;48.092;11.574;2022-08-19T07:10:43;94993.94;;;17.97;100.00
27429;BME280;14881;48.092;11.574;2022-08-19T07:13:11;94996.59;;;17.93;100.00
27429;BME280;14881;48.092;11.574;2022-08-19T07:15:39;94999.19;;;18.02;100.00
27429;BME280;14881;48.092;11.574;2022-08-19T07:18:08;94988.75;;;18.07;100.00
27429;BME280;14881;48.092;11.574;2022-08-19T07:20:39;94978.53;;;18.08;100.00
27429;BME280;14881;48.092;11.574;2022-08-19T07:23:07;94973.84;;;18.08;100.00
27429;BME280;14881;48.092;11.574;2022-08-19T07:25:41;94969.53;;;18.23;100.00
27429;BME280;14881;48.092;11.574;2022-08-19T07:28:09;94970.88;;;18.29;100.00
27429;BME280;14881;48.092;11.574;2022-08-19T07:30:50;94971.16;;;18.40;100.00
27429;BME280;14881;48.092;11.574;2022-08-19T07:33:18;94961.75;;;18.41;100.00
27429;BME280;14881;48.092;11.574;2022-08-19T07:35:48;94964.66;;;18.60;100.00
27429;BME280;14881;48.092;11.574;2022-08-19T07:38:16;94956.50;;;18.64;100.00
27429;BME280;14881;48.092;11.574;2022-08-19T07:40:44;94958.81;;;18.77;100.00
27429;BME280;14881;48.092;11.574;2022-08-19T07:43:13;94964.56;;;18.88;100.00
27429;BME280;14881;48.092;11.574;2022-08-19T07:45:43;94959.69;;;18.97;100.00
27429;BME280;14881;48.092;11.574;2022-08-19T07:48:11;94966.53;;;19.03;100.00
27429;BME280;14881;48.092;11.574;2022-08-19T07:50:39;94973.63;;;19.20;100.00
27429;BME280;14881;48.092;11.574;2022-08-19T07:53:08;94975.06;;;19.14;100.00
27429;BME280;14881;48.092;11.574;2022-08-19T07:55:36;94976.56;;;19.11;100.00
27429;BME280;14881;48.092;11.574;2022-08-19T07:58:08;94969.28;;;19.19;100.00
27429;BME280;14881;48.092;11.574;2022-08-19T08:00:36;94965.44;;;19.24;100.00
27429;BME280;14881;48.092;11.574;2022-08-19T08:03:04;94972.19;;;19.26;100.00
27429;BME280;14881;48.092;11.574;2022-08-19T08:05:32;94971.69;;;19.21;100.00
27429;BME280;14881;48.092;11.574;2022-08-19T08:08:19;94984.56;;;19.17;100.00
27429;BME280;14881;48.092;11.574;2022-08-19T08:11:15;94984.47;;;18.97;100.00
27429;BME280;14881;48.092;11.574;2022-08-19T08:13:46;94990.59;;;18.91;100.00
27429;BME280;14881;48.092;11.574;2022-08-19T08:16:31;94991.28;;;18.88;100.00
27429;BME280;14881;48.092;11.574;2022-08-19T08:19:05;94990.59;;;18.75;100.00
27429;BME280;14881;48.092;11.574;2022-08-19T08:21:51;94990.41;;;18.68;100.00
27429;BME280;14881;48.092;11.574;2022-08-19T08:24:21;94994.13;;;18.60;100.00
27429;BME280;14881;48.092;11.574;2022-08-19T08:26:54;94997.19;;;18.58;100.00
27429;BME280;14881;48.092;11.574;2022-08-19T08:29:23;95002.59;;;18.55;100.00
27429;BME280;14881;48.092;11.574;2022-08-19T08:32:00;95007.59;;;18.49;100.00
27429;BME280;14881;48.092;11.574;2022-08-19T08:34:28;95012.19;;;18.45;100.00
27429;BME280;14881;48.092;11.574;2022-08-19T08:36:55;95007.28;;;18.38;100.00
27429;BME280;14881;48.092;11.574;2022-08-19T08:39:25;95007.72;;;18.40;100.00
27429;BME280;14881;48.092;11.574;2022-08-19T08:41:57;95012.16;;;18.29;100.00
27429;BME280;14881;48.092;11.574;2022-08-19T08:44:49;95019.53;;;18.13;100.00
27429;BME280;14881;48.092;11.574;2022-08-19T08:47:25;95037.66;;;18.02;100.00
27429;BME280;14881;48.092;11.574;2022-08-19T08:50:00;95035.19;;;17.97;100.00
27429;BME280;14881;48.092;11.574;2022-08-19T08:52:33;95027.97;;;17.92;100.00
27429;BME280;14881;48.092;11.574;2022-08-19T08:55:09;95038.66;;;17.69;100.00
27429;BME280;14881;48.092;11.574;2022-08-19T08:57:44;95035.69;;;17.50;100.00
27429;BME280;14881;48.092;11.574;2022-08-19T09:00:19;95044.84;;;17.42;100.00
27429;BME280;14881;48.092;11.574;2022-08-19T09:02:47;95044.50;;;17.44;100.00
27429;BME280;14881;48.092;11.574;2022-08-19T09:05:17;95056.97;;;17.41;100.00
27429;BME280;14881;48.092;11.574;2022-08-19T09:07:58;95046.69;;;17.38;100.00
27429;BME280;14881;48.092;11.574;2022-08-19T09:10:35;95054.56;;;17.52;100.00
27429;BME280;14881;48.092;11.574;2022-08-19T09:13:22;95052.41;;;17.57;100.00
27429;BME280;14881;48.092;11.574;2022-08-19T09:15:58;95051.25;;;17.58;100.00
27429;BME280;14881;48.092;11.574;2022-08-19T09:18:39;95049.91;;;17.64;100.00
27429;BME280;14881;48.092;11.574;2022-08-19T09:21:07;95052.41;;;17.69;100.00
27429;BME280;14881;48.092;11.574;2022-08-19T09:23:35;95049.78;;;17.73;100.00
27429;BME280;14881;48.092;11.574;2022-08-19T09:26:08;95041.63;;;17.77;100.00
27429;BME280;14881;48.092;11.574;2022-08-19T09:28:37;95043.34;;;17.81;100.00
27429;BME280;14881;48.092;11.574;2022-08-19T09:31:09;95045.03;;;17.86;100.00
27429;BME280;14881;48.092;11.574;2022-08-19T09:33:37;95049.84;;;17.89;100.00
27429;BME280;14881;48.092;11.574;2022-08-19T09:36:08;95045.03;;;17.86;100.00
27429;BME280;14881;48.092;11.574;2022-08-19T09:38:37;95046.19;;;17.97;100.00
27429;BME280;14881;48.092;11.574;2022-08-19T09:41:12;95045.13;;;18.01;100.00
27429;BME280;14881;48.092;11.574;2022-08-19T09:43:43;95055.28;;;18.13;100.00
27429;BME280;14881;48.092;11.574;2022-08-19T09:46:14;95047.84;;;18.14;100.00
27429;BME280;14881;48.092;11.574;2022-08-19T09:48:43;95037.03;;;18.21;100.00
27429;BME280;14881;48.092;11.574;2022-08-19T09:51:16;95039.09;;;18.24;100.00
27429;BME280;14881;48.092;11.574;2022-08-19T09:53:47;95043.19;;;18.30;100.00
27429;BME280;14881;48.092;11.574;2022-08-19T09:56:21;95050.69;;;18.45;100.00
27429;BME280;14881;48.092;11.574;2022-08-19T09:58:50;95049.66;;;18.50;100.00
27429;BME280;14881;48.092;11.574;2022-08-19T10:01:19;95049.84;;;18.57;100.00
27429;BME280;14881;48.092;11.574;2022-08-19T10:03:49;95046.34;;;18.72;100.00
27429;BME280;14881;48.092;11.574;2022-08-19T10:06:18;95049.81;;;18.69;100.00
27429;BME280;14881;48.092;11.574;2022-08-19T10:09:08;95052.03;;;18.79;100.00
27429;BME280;14881;48.092;11.574;2022-08-19T10:11:39;95043.09;;;18.98;100.00
27429;BME280;14881;48.092;11.574;2022-08-19T10:14:18;95053.06;;;19.18;100.00
27429;BME280;14881;48.092;11.574;2022-08-19T10:16:49;95050.91;;;19.27;100.00
27429;BME280;14881;48.092;11.574;2022-08-19T10:19:18;95049.66;;;19.40;100.00
27429;BME280;14881;48.092;11.574;2022-08-19T10:21:52;95045.13;;;19.48;100.00
27429;BME280;14881;48.092;11.574;2022-08-19T10:24:21;95042.63;;;19.43;100.00
27429;BME280;14881;48.092;11.574;2022-08-19T10:26:52;95029.13;;;19.22;100.00
27429;BME280;14881;48.092;11.574;2022-08-19T10:29:25;95034.94;;;19.33;100.00
27429;BME280;14881;48.092;11.574;2022-08-19T10:31:59;95024.06;;;19.40;100.00
27429;BME280;14881;48.092;11.574;2022-08-19T10:34:29;95022.91;;;19.41;100.00
27429;BME280;14881;48.092;11.574;2022-08-19T10:36:58;95030.66;;;19.35;100.00
27429;BME280;14881;48.092;11.574;2022-08-19T10:39:28;95015.44;;;19.57;100.00
27429;BME280;14881;48.092;11.574;2022-08-19T10:42:04;95018.38;;;19.64;100.00
27429;BME280;14881;48.092;11.574;2022-08-19T10:44:33;95020.75;;;19.66;100.00
27429;BME280;14881;48.092;11.574;2022-08-19T10:47:02;95021.06;;;19.80;100.00
27429;BME280;14881;48.092;11.574;2022-08-19T10:49:43;95002.44;;;20.31;100.00
27429;BME280;14881;48.092;11.574;2022-08-19T10:52:28;95007.81;;;20.63;100.00
27429;BME280;14881;48.092;11.574;2022-08-19T10:55:06;95006.63;;;21.06;100.00
27429;BME280;14881;48.092;11.574;2022-08-19T10:57:56;95010.91;;;20.80;100.00
27429;BME280;14881;48.092;11.574;2022-08-19T11:00:28;95009.66;;;20.55;100.00
27429;BME280;14881;48.092;11.574;2022-08-19T11:02:57;95008.53;;;20.37;100.00
27429;BME280;14881;48.092;11.574;2022-08-19T11:05:25;95013.00;;;20.06;100.00
27429;BME280;14881;48.092;11.574;2022-08-19T11:07:52;95016.63;;;19.91;100.00
27429;BME280;14881;48.092;11.574;2022-08-19T11:10:20;95017.25;;;19.85;100.00
27429;BME280;14881;48.092;11.574;2022-08-19T11:12:50;95007.03;;;19.85;100.00
27429;BME280;14881;48.092;11.574;2022-08-19T11:15:21;95001.41;;;19.81;100.00
27429;BME280;14881;48.092;11.574;2022-08-19T11:17:51;94998.88;;;19.73;100.00
27429;BME280;14881;48.092;11.574;2022-08-19T11:20:20;95002.44;;;19.93;100.00
27429;BME280;14881;48.092;11.574;2022-08-19T11:22:51;95002.31;;;20.05;100.00
27429;BME280;14881;48.092;11.574;2022-08-19T11:25:19;94995.50;;;20.18;100.00
27429;BME280;14881;48.092;11.574;2022-08-19T11:27:47;94994.03;;;20.43;100.00
27429;BME280;14881;48.092;11.574;2022-08-19T11:30:17;95004.78;;;20.48;100.00
27429;BME280;14881;48.092;11.574;2022-08-19T11:32:46;94987.94;;;20.54;100.00
27429;BME280;14881;48.092;11.574;2022-08-19T11:35:15;94998.84;;;20.46;100.00
27429;BME280;14881;48.092;11.574;2022-08-19T11:37:45;95001.56;;;20.43;100.00
27429;BME280;14881;48.092;11.574;2022-08-19T11:40:13;94997.81;;;20.16;100.00
27429;BME280;14881;48.092;11.574;2022-08-19T11:42:41;95003.09;;;19.86;100.00
27429;BME280;14881;48.092;11.574;2022-08-19T11:45:26;95010.53;;;19.66;100.00
27429;BME280;14881;48.092;11.574;2022-08-19T11:47:56;95010.28;;;19.40;100.00
27429;BME280;14881;48.092;11.574;2022-08-19T11:50:24;95002.56;;;19.30;100.00
27429;BME280;14881;48.092;11.574;2022-08-19T11:52:54;95004.44;;;19.26;100.00
27429;BME280;14881;48.092;11.574;2022-08-19T11:55:22;95006.13;;;19.30;100.00
27429;BME280;14881;48.092;11.574;2022-08-19T11:57:50;95005.16;;;19.38;100.00
27429;BME280;14881;48.092;11.574;2022-08-19T12:00:19;95005.50;;;19.53;100.00
27429;BME280;14881;48.092;11.574;2022-08-19T12:02:46;95016.41;;;19.65;100.00
27429;BME280;14881;48.092;11.574;2022-08-19T12:05:16;95009.47;;;19.71;100.00
27429;BME280;14881;48.092;11.574;2022-08-19T12:07:44;95009.78;;;19.85;100.00
27429;BME280;14881;48.092;11.574;2022-08-19T12:10:12;95010.06;;;19.99;100.00
27429;BME280;14881;48.092;11.574;2022-08-19T12:12:44;95004.66;;;20.03;100.00
27429;BME280;14881;48.092;11.574;2022-08-19T12:15:23;95012.97;;;19.87;100.00
27429;BME280;14881;48.092;11.574;2022-08-19T12:17:53;95016.75;;;19.63;100.00
27429;BME280;14881;48.092;11.574;2022-08-19T12:20:24;95023.78;;;19.61;100.00
27429;BME280;14881;48.092;11.574;2022-08-19T12:22:52;95031.69;;;19.62;100.00
27429;BME280;14881;48.092;11.574;2022-08-19T12:25:22;95030.31;;;19.37;100.00
27429;BME280;14881;48.092;11.574;2022-08-19T12:27:49;95028.72;;;19.36;100.00
27429;BME280;14881;48.092;11.574;2022-08-19T12:30:24;95027.91;;;19.20;100.00
27429;BME280;14881;48.092;11.574;2022-08-19T12:32:52;95024.88;;;19.25;100.00
27429;BME280;14881;48.092;11.574;2022-08-19T12:35:19;95021.84;;;19.30;100.00
27429;BME280;14881;48.092;11.574;2022-08-19T12:37:49;95030.81;;;19.58;100.00
27429;BME280;14881;48.092;11.574;2022-08-19T12:40:23;95033.97;;;19.57;100.00
27429;BME280;14881;48.092;11.574;2022-08-19T12:42:52;95031.34;;;19.48;100.00
27429;BME280;14881;48.092;11.574;2022-08-19T12:45:20;95032.78;;;19.42;100.00
27429;BME280;14881;48.092;11.574;2022-08-19T12:47:48;95038.00;;;19.63;100.00
27429;BME280;14881;48.092;11.574;2022-08-19T12:50:20;95044.06;;;19.68;100.00
27429;BME280;14881;48.092;11.574;2022-08-19T12:52:49;95041.44;;;19.91;100.00
27429;BME280;14881;48.092;11.574;2022-08-19T12:55:17;95032.31;;;20.06;100.00
27429;BME280;14881;48.092;11.574;2022-08-19T12:57:45;95028.34;;;20.42;100.00
27429;BME280;14881;48.092;11.574;2022-08-19T13:00:17;95023.94;;;20.61;100.00